sensor_id;sensor_type;location;lat;lon;timestamp;temperature;humidity
26641;DHT22;14269;47.358;0.724;2022-12-07T00:00:28;8.0;67.0
26641;DHT22;14269;47.358;0.724;2022-12-07T00:03:00;8.0;67.0
26641;DHT22;14269;47.358;0.724;2022-12-07T00:05:32;8.0;66.0
26641;DHT22;14269;47.358;0.724;2022-12-07T00:08:04;8.0;67.0
26641;DHT22;14269;47.358;0.724;2022-12-07T00:10:35;8.0;67.0
26641;DHT22;14269;47.358;0.724;2022-12-07T00:13:07;8.0;67.0
26641;DHT22;14269;47.358;0.724;2022-12-07T00:15:38;8.0;66.0
26641;DHT22;14269;47.358;0.724;2022-12-07T00:18:10;8.0;67.0
26641;DHT22;14269;47.358;0.724;2022-12-07T00:20:42;8.0;67.0
26641;DHT22;14269;47.358;0.724;2022-12-07T00:23:13;8.0;67.0
26641;DHT22;14269;47.358;0.724;2022-12-07T00:25:45;8.0;67.0
26641;DHT22;14269;47.358;0.724;2022-12-07T00:28:17;8.0;67.0
26641;DHT22;14269;47.358;0.724;2022-12-07T00:30:48;8.0;67.0
26641;DHT22;14269;47.358;0.724;2022-12-07T00:33:20;8.0;67.0
26641;DHT22;14269;47.358;0.724;2022-12-07T00:35:55;8.0;67.0
26641;DHT22;14269;47.358;0.724;2022-12-07T00:38:35;8.0;67.0
26641;DHT22;14269;47.358;0.724;2022-12-07T00:41:17;8.0;68.0
26641;DHT22;14269;47.358;0.724;2022-12-07T00:43:57;8.0;68.0
26641;DHT22;14269;47.358;0.724;2022-12-07T00:46:29;8.0;67.0
26641;DHT22;14269;47.358;0.724;2022-12-07T00:49:10;8.0;67.0
26641;DHT22;14269;47.358;0.724;2022-12-07T00:51:42;8.0;67.0
26641;DHT22;14269;47.358;0.724;2022-12-07T00:54:14;8.0;67.0
26641;DHT22;14269;47.358;0.724;2022-12-07T00:56:45;8.0;67.0
26641;DHT22;14269;47.358;0.724;2022-12-07T00:59:17;8.0;67.0
26641;DHT22;14269;47.358;0.724;2022-12-07T01:01:48;8.0;67.0
26641;DHT22;14269;47.358;0.724;2022-12-07T01:04:20;8.0;67.0
26641;DHT22;14269;47.358;0.724;2022-12-07T01:06:52;8.0;67.0
26641;DHT22;14269;47.358;0.724;2022-12-07T01:09:24;8.0;67.0
26641;DHT22;14269;47.358;0.724;2022-12-07T01:11:55;8.0;68.0
26641;DHT22;14269;47.358;0.724;2022-12-07T01:14:27;8.0;68.0
26641;DHT22;14269;47.358;0.724;2022-12-07T01:16:58;8.0;67.0
26641;DHT22;14269;47.358;0.724;2022-12-07T01:19:30;8.0;67.0
26641;DHT22;14269;47.358;0.724;2022-12-07T01:22:02;8.0;67.0
26641;DHT22;14269;47.358;0.724;2022-12-07T01:24:33;8.0;68.0
26641;DHT22;14269;47.358;0.724;2022-12-07T01:27:05;8.0;68.0
26641;DHT22;14269;47.358;0.724;2022-12-07T01:29:37;8.0;67.0
26641;DHT22;14269;47.358;0.724;2022-12-07T01:32:08;8.0;68.0
26641;DHT22;14269;47.358;0.724;2022-12-07T01:34:40;8.0;68.0
26641;DHT22;14269;47.358;0.724;2022-12-07T01:37:11;8.0;67.0
26641;DHT22;14269;47.358;0.724;2022-12-07T01:39:43;8.0;68.0
26641;DHT22;14269;47.358;0.724;2022-12-07T01:42:15;8.0;68.0
26641;DHT22;14269;47.358;0.724;2022-12-07T01:45:39;8.0;68.0
26641;DHT22;14269;47.358;0.724;2022-12-07T01:48:22;8.0;67.0
26641;DHT22;14269;47.358;0.724;2022-12-07T01:51:02;8.0;68.0
26641;DHT22;14269;47.358;0.724;2022-12-07T01:53:44;8.0;68.0
26641;DHT22;14269;47.358;0.724;2022-12-07T01:56:26;8.0;68.0
26641;DHT22;14269;47.358;0.724;2022-12-07T01:59:06;8.0;68.0
26641;DHT22;14269;47.358;0.724;2022-12-07T02:01:37;8.0;68.0
26641;DHT22;14269;47.358;0.724;2022-12-07T02:04:10;8.0;67.0
26641;DHT22;14269;47.358;0.724;2022-12-07T02:06:51;8.0;68.0
26641;DHT22;14269;47.358;0.724;2022-12-07T02:09:23;8.0;67.0
26641;DHT22;14269;47.358;0.724;2022-12-07T02:11:55;8.0;67.0
26641;DHT22;14269;47.358;0.724;2022-12-07T02:14:36;8.0;67.0
26641;DHT22;14269;47.358;0.724;2022-12-07T02:17:14;8.0;67.0
26641;DHT22;14269;47.358;0.724;2022-12-07T02:20:28;8.0;68.0
26641;DHT22;14269;47.358;0.724;2022-12-07T02:23:21;8.0;68.0
26641;DHT22;14269;47.358;0.724;2022-12-07T02:28:28;8.0;67.0
26641;DHT22;14269;47.358;0.724;2022-12-07T02:31:12;8.0;67.0
26641;DHT22;14269;47.358;0.724;2022-12-07T02:33:53;8.0;68.0
26641;DHT22;14269;47.358;0.724;2022-12-07T02:36:33;8.0;68.0
26641;DHT22;14269;47.358;0.724;2022-12-07T02:39:16;8.0;68.0
26641;DHT22;14269;47.358;0.724;2022-12-07T02:41:56;8.0;69.0
26641;DHT22;14269;47.358;0.724;2022-12-07T02:44:36;8.0;69.0
26641;DHT22;14269;47.358;0.724;2022-12-07T02:47:18;8.0;70.0
26641;DHT22;14269;47.358;0.724;2022-12-07T02:49:59;8.0;70.0
26641;DHT22;14269;47.358;0.724;2022-12-07T02:52:31;8.0;71.0
26641;DHT22;14269;47.358;0.724;2022-12-07T02:55:03;8.0;71.0
26641;DHT22;14269;47.358;0.724;2022-12-07T02:57:59;8.0;71.0
26641;DHT22;14269;47.358;0.724;2022-12-07T03:00:44;8.0;71.0
26641;DHT22;14269;47.358;0.724;2022-12-07T03:03:28;8.0;71.0
26641;DHT22;14269;47.358;0.724;2022-12-07T03:06:08;8.0;71.0
26641;DHT22;14269;47.358;0.724;2022-12-07T03:08:50;8.0;71.0
26641;DHT22;14269;47.358;0.724;2022-12-07T03:11:28;8.0;71.0
26641;DHT22;14269;47.358;0.724;2022-12-07T03:14:11;8.0;71.0
26641;DHT22;14269;47.358;0.724;2022-12-07T03:16:52;8.0;71.0
26641;DHT22;14269;47.358;0.724;2022-12-07T03:19:31;8.0;71.0
26641;DHT22;14269;47.358;0.724;2022-12-07T03:22:11;8.0;72.0
26641;DHT22;14269;47.358;0.724;2022-12-07T03:24:55;8.0;72.0
26641;DHT22;14269;47.358;0.724;2022-12-07T03:27:37;8.0;72.0
26641;DHT22;14269;47.358;0.724;2022-12-07T03:30:19;8.0;72.0
26641;DHT22;14269;47.358;0.724;2022-12-07T03:33:01;8.0;72.0
26641;DHT22;14269;47.358;0.724;2022-12-07T03:35:41;8.0;72.0
26641;DHT22;14269;47.358;0.724;2022-12-07T03:38:24;8.0;72.0
26641;DHT22;14269;47.358;0.724;2022-12-07T03:41:05;8.0;71.0
26641;DHT22;14269;47.358;0.724;2022-12-07T03:43:44;8.0;73.0
26641;DHT22;14269;47.358;0.724;2022-12-07T03:46:20;8.0;72.0
26641;DHT22;14269;47.358;0.724;2022-12-07T03:49:03;8.0;72.0
26641;DHT22;14269;47.358;0.724;2022-12-07T03:51:44;8.0;71.0
26641;DHT22;14269;47.358;0.724;2022-12-07T03:54:24;8.0;72.0
26641;DHT22;14269;47.358;0.724;2022-12-07T03:57:04;8.0;72.0
26641;DHT22;14269;47.358;0.724;2022-12-07T03:59:45;8.0;72.0
26641;DHT22;14269;47.358;0.724;2022-12-07T04:02:27;8.0;72.0
26641;DHT22;14269;47.358;0.724;2022-12-07T04:05:09;8.0;72.0
26641;DHT22;14269;47.358;0.724;2022-12-07T04:07:50;8.0;72.0
26641;DHT22;14269;47.358;0.724;2022-12-07T04:10:21;8.0;72.0
26641;DHT22;14269;47.358;0.724;2022-12-07T04:12:53;8.0;72.0
26641;DHT22;14269;47.358;0.724;2022-12-07T04:15:25;8.0;72.0
26641;DHT22;14269;47.358;0.724;2022-12-07T04:17:56;8.0;72.0
26641;DHT22;14269;47.358;0.724;2022-12-07T04:20:28;8.0;72.0
26641;DHT22;14269;47.358;0.724;2022-12-07T04:22:59;8.0;72.0
26641;DHT22;14269;47.358;0.724;2022-12-07T04:25:31;8.0;72.0
26641;DHT22;14269;47.358;0.724;2022-12-07T04:28:03;8.0;72.0
26641;DHT22;14269;47.358;0.724;2022-12-07T04:30:34;8.0;72.0
26641;DHT22;14269;47.358;0.724;2022-12-07T04:33:06;8.0;72.0
26641;DHT22;14269;47.358;0.724;2022-12-07T04:35:48;8.0;72.0
26641;DHT22;14269;47.358;0.724;2022-12-07T04:38:19;8.0;72.0
26641;DHT22;14269;47.358;0.724;2022-12-07T04:40:51;8.0;72.0
26641;DHT22;14269;47.358;0.724;2022-12-07T04:43:23;8.0;72.0
26641;DHT22;14269;47.358;0.724;2022-12-07T04:45:54;8.0;72.0
26641;DHT22;14269;47.358;0.724;2022-12-07T04:48:26;8.0;72.0
26641;DHT22;14269;47.358;0.724;2022-12-07T04:50:58;8.0;72.0
26641;DHT22;14269;47.358;0.724;2022-12-07T04:53:29;8.0;72.0
26641;DHT22;14269;47.358;0.724;2022-12-07T04:56:01;8.0;72.0
26641;DHT22;14269;47.358;0.724;2022-12-07T04:58:33;8.0;71.0
26641;DHT22;14269;47.358;0.724;2022-12-07T05:01:04;7.0;72.0
26641;DHT22;14269;47.358;0.724;2022-12-07T05:03:37;7.0;72.0
26641;DHT22;14269;47.358;0.724;2022-12-07T05:06:09;7.0;72.0
26641;DHT22;14269;47.358;0.724;2022-12-07T05:08:50;7.0;71.0
26641;DHT22;14269;47.358;0.724;2022-12-07T05:11:53;7.0;71.0
26641;DHT22;14269;47.358;0.724;2022-12-07T05:14:33;7.0;73.0
26641;DHT22;14269;47.358;0.724;2022-12-07T05:17:05;7.0;72.0
26641;DHT22;14269;47.358;0.724;2022-12-07T05:19:36;7.0;72.0
26641;DHT22;14269;47.358;0.724;2022-12-07T05:22:08;7.0;72.0
26641;DHT22;14269;47.358;0.724;2022-12-07T05:24:40;7.0;72.0
26641;DHT22;14269;47.358;0.724;2022-12-07T05:27:11;7.0;72.0
26641;DHT22;14269;47.358;0.724;2022-12-07T05:29:43;7.0;71.0
26641;DHT22;14269;47.358;0.724;2022-12-07T05:32:15;7.0;71.0
26641;DHT22;14269;47.358;0.724;2022-12-07T05:34:46;7.0;71.0
26641;DHT22;14269;47.358;0.724;2022-12-07T05:37:18;7.0;71.0
26641;DHT22;14269;47.358;0.724;2022-12-07T05:39:50;7.0;71.0
26641;DHT22;14269;47.358;0.724;2022-12-07T05:42:21;7.0;72.0
26641;DHT22;14269;47.358;0.724;2022-12-07T05:44:53;7.0;71.0
26641;DHT22;14269;47.358;0.724;2022-12-07T05:47:24;7.0;72.0
26641;DHT22;14269;47.358;0.724;2022-12-07T05:49:56;7.0;72.0
26641;DHT22;14269;47.358;0.724;2022-12-07T05:52:28;7.0;73.0
26641;DHT22;14269;47.358;0.724;2022-12-07T05:54:59;7.0;72.0
26641;DHT22;14269;47.358;0.724;2022-12-07T05:57:31;7.0;72.0
26641;DHT22;14269;47.358;0.724;2022-12-07T06:00:04;7.0;71.0
26641;DHT22;14269;47.358;0.724;2022-12-07T06:02:45;7.0;71.0
26641;DHT22;14269;47.358;0.724;2022-12-07T06:05:16;7.0;72.0
26641;DHT22;14269;47.358;0.724;2022-12-07T06:07:48;7.0;72.0
26641;DHT22;14269;47.358;0.724;2022-12-07T06:10:19;7.0;72.0
26641;DHT22;14269;47.358;0.724;2022-12-07T06:12:51;7.0;72.0
26641;DHT22;14269;47.358;0.724;2022-12-07T06:15:23;7.0;72.0
26641;DHT22;14269;47.358;0.724;2022-12-07T06:17:54;7.0;72.0
26641;DHT22;14269;47.358;0.724;2022-12-07T06:20:26;7.0;72.0
26641;DHT22;14269;47.358;0.724;2022-12-07T06:22:58;7.0;72.0
26641;DHT22;14269;47.358;0.724;2022-12-07T06:25:29;6.0;72.0
26641;DHT22;14269;47.358;0.724;2022-12-07T06:28:01;6.0;72.0
26641;DHT22;14269;47.358;0.724;2022-12-07T06:30:33;6.0;71.0
26641;DHT22;14269;47.358;0.724;2022-12-07T06:33:04;6.0;71.0
26641;DHT22;14269;47.358;0.724;2022-12-07T06:35:36;6.0;72.0
26641;DHT22;14269;47.358;0.724;2022-12-07T06:38:08;6.0;72.0
26641;DHT22;14269;47.358;0.724;2022-12-07T06:40:39;6.0;73.0
26641;DHT22;14269;47.358;0.724;2022-12-07T06:43:11;6.0;73.0
26641;DHT22;14269;47.358;0.724;2022-12-07T06:45:43;6.0;72.0
26641;DHT22;14269;47.358;0.724;2022-12-07T06:48:14;6.0;72.0
26641;DHT22;14269;47.358;0.724;2022-12-07T06:50:46;6.0;72.0
26641;DHT22;14269;47.358;0.724;2022-12-07T06:53:17;6.0;73.0
26641;DHT22;14269;47.358;0.724;2022-12-07T06:55:49;6.0;72.0
26641;DHT22;14269;47.358;0.724;2022-12-07T06:58:21;6.0;72.0
26641;DHT22;14269;47.358;0.724;2022-12-07T07:00:52;6.0;73.0
26641;DHT22;14269;47.358;0.724;2022-12-07T07:03:24;6.0;73.0
26641;DHT22;14269;47.358;0.724;2022-12-07T07:05:56;6.0;72.0
26641;DHT22;14269;47.358;0.724;2022-12-07T07:08:27;6.0;73.0
26641;DHT22;14269;47.358;0.724;2022-12-07T07:10:59;6.0;72.0
26641;DHT22;14269;47.358;0.724;2022-12-07T07:13:31;6.0;73.0
26641;DHT22;14269;47.358;0.724;2022-12-07T07:16:02;6.0;72.0
26641;DHT22;14269;47.358;0.724;2022-12-07T07:18:34;6.0;72.0
26641;DHT22;14269;47.358;0.724;2022-12-07T07:21:06;6.0;72.0
26641;DHT22;14269;47.358;0.724;2022-12-07T07:23:37;6.0;72.0
26641;DHT22;14269;47.358;0.724;2022-12-07T07:26:09;6.0;72.0
26641;DHT22;14269;47.358;0.724;2022-12-07T07:28:40;5.0;72.0
26641;DHT22;14269;47.358;0.724;2022-12-07T07:31:12;5.0;73.0
26641;DHT22;14269;47.358;0.724;2022-12-07T07:33:45;5.0;73.0
26641;DHT22;14269;47.358;0.724;2022-12-07T07:36:26;5.0;72.0
26641;DHT22;14269;47.358;0.724;2022-12-07T07:38:57;5.0;73.0
26641;DHT22;14269;47.358;0.724;2022-12-07T07:41:29;5.0;72.0
26641;DHT22;14269;47.358;0.724;2022-12-07T07:44:00;5.0;73.0
26641;DHT22;14269;47.358;0.724;2022-12-07T07:46:33;5.0;72.0
26641;DHT22;14269;47.358;0.724;2022-12-07T07:49:04;5.0;72.0
26641;DHT22;14269;47.358;0.724;2022-12-07T07:51:35;5.0;73.0
26641;DHT22;14269;47.358;0.724;2022-12-07T07:54:07;5.0;73.0
26641;DHT22;14269;47.358;0.724;2022-12-07T07:56:39;5.0;73.0
26641;DHT22;14269;47.358;0.724;2022-12-07T07:59:10;6.0;73.0
26641;DHT22;14269;47.358;0.724;2022-12-07T08:01:42;5.0;72.0
26641;DHT22;14269;47.358;0.724;2022-12-07T08:04:14;6.0;72.0
26641;DHT22;14269;47.358;0.724;2022-12-07T08:06:45;5.0;71.0
26641;DHT22;14269;47.358;0.724;2022-12-07T08:09:17;5.0;72.0
26641;DHT22;14269;47.358;0.724;2022-12-07T08:11:49;6.0;71.0
26641;DHT22;14269;47.358;0.724;2022-12-07T08:14:20;6.0;72.0
26641;DHT22;14269;47.358;0.724;2022-12-07T08:16:52;6.0;71.0
26641;DHT22;14269;47.358;0.724;2022-12-07T08:19:24;6.0;72.0
26641;DHT22;14269;47.358;0.724;2022-12-07T08:21:56;6.0;71.0
26641;DHT22;14269;47.358;0.724;2022-12-07T08:24:27;6.0;71.0
26641;DHT22;14269;47.358;0.724;2022-12-07T08:26:58;6.0;71.0
26641;DHT22;14269;47.358;0.724;2022-12-07T08:29:30;6.0;70.0
26641;DHT22;14269;47.358;0.724;2022-12-07T08:32:02;6.0;71.0
26641;DHT22;14269;47.358;0.724;2022-12-07T08:34:33;6.0;71.0
26641;DHT22;14269;47.358;0.724;2022-12-07T08:37:05;6.0;71.0
26641;DHT22;14269;47.358;0.724;2022-12-07T08:39:37;6.0;71.0
26641;DHT22;14269;47.358;0.724;2022-12-07T08:42:08;6.0;72.0
26641;DHT22;14269;47.358;0.724;2022-12-07T08:44:40;6.0;72.0
26641;DHT22;14269;47.358;0.724;2022-12-07T08:47:12;6.0;71.0
26641;DHT22;14269;47.358;0.724;2022-12-07T08:49:47;6.0;71.0
26641;DHT22;14269;47.358;0.724;2022-12-07T08:52:25;6.0;71.0
26641;DHT22;14269;47.358;0.724;2022-12-07T08:54:57;6.0;70.0
26641;DHT22;14269;47.358;0.724;2022-12-07T08:57:39;6.0;71.0
26641;DHT22;14269;47.358;0.724;2022-12-07T09:00:21;6.0;70.0
26641;DHT22;14269;47.358;0.724;2022-12-07T09:02:53;6.0;70.0
26641;DHT22;14269;47.358;0.724;2022-12-07T09:05:34;6.0;69.0
26641;DHT22;14269;47.358;0.724;2022-12-07T09:08:06;6.0;69.0
26641;DHT22;14269;47.358;0.724;2022-12-07T09:10:47;6.0;68.0
26641;DHT22;14269;47.358;0.724;2022-12-07T09:13:19;6.0;68.0
26641;DHT22;14269;47.358;0.724;2022-12-07T09:15:50;6.0;69.0
26641;DHT22;14269;47.358;0.724;2022-12-07T09:18:22;6.0;69.0
26641;DHT22;14269;47.358;0.724;2022-12-07T09:21:04;6.0;69.0
26641;DHT22;14269;47.358;0.724;2022-12-07T09:23:35;7.0;69.0
26641;DHT22;14269;47.358;0.724;2022-12-07T09:26:07;7.0;68.0
26641;DHT22;14269;47.358;0.724;2022-12-07T09:28:39;7.0;67.0
26641;DHT22;14269;47.358;0.724;2022-12-07T09:31:10;7.0;67.0
26641;DHT22;14269;47.358;0.724;2022-12-07T09:33:42;7.0;67.0
26641;DHT22;14269;47.358;0.724;2022-12-07T09:36:13;7.0;67.0
26641;DHT22;14269;47.358;0.724;2022-12-07T09:38:45;7.0;67.0
26641;DHT22;14269;47.358;0.724;2022-12-07T09:41:17;7.0;66.0
26641;DHT22;14269;47.358;0.724;2022-12-07T09:43:49;7.0;67.0
26641;DHT22;14269;47.358;0.724;2022-12-07T09:46:20;6.0;66.0
26641;DHT22;14269;47.358;0.724;2022-12-07T09:49:02;6.0;67.0
26641;DHT22;14269;47.358;0.724;2022-12-07T09:51:34;6.0;67.0
26641;DHT22;14269;47.358;0.724;2022-12-07T09:54:05;6.0;67.0
26641;DHT22;14269;47.358;0.724;2022-12-07T09:56:37;7.0;67.0
26641;DHT22;14269;47.358;0.724;2022-12-07T09:59:13;7.0;66.0
26641;DHT22;14269;47.358;0.724;2022-12-07T10:01:50;7.0;66.0
26641;DHT22;14269;47.358;0.724;2022-12-07T10:04:24;7.0;65.0
26641;DHT22;14269;47.358;0.724;2022-12-07T10:07:04;7.0;64.0
26641;DHT22;14269;47.358;0.724;2022-12-07T10:09:35;7.0;64.0
26641;DHT22;14269;47.358;0.724;2022-12-07T10:12:09;7.0;64.0
26641;DHT22;14269;47.358;0.724;2022-12-07T10:15:02;7.0;64.0
26641;DHT22;14269;47.358;0.724;2022-12-07T10:17:47;7.0;64.0
26641;DHT22;14269;47.358;0.724;2022-12-07T10:20:26;7.0;64.0
26641;DHT22;14269;47.358;0.724;2022-12-07T10:23:13;7.0;64.0
26641;DHT22;14269;47.358;0.724;2022-12-07T10:25:48;7.0;63.0
26641;DHT22;14269;47.358;0.724;2022-12-07T10:28:35;8.0;62.0
26641;DHT22;14269;47.358;0.724;2022-12-07T10:31:17;11.0;56.0
26641;DHT22;14269;47.358;0.724;2022-12-07T10:33:53;13.0;50.0
26641;DHT22;14269;47.358;0.724;2022-12-07T10:36:35;15.0;44.0
26641;DHT22;14269;47.358;0.724;2022-12-07T10:39:16;14.0;45.0
26641;DHT22;14269;47.358;0.724;2022-12-07T10:41:58;13.0;46.0
26641;DHT22;14269;47.358;0.724;2022-12-07T10:44:43;12.0;48.0
26641;DHT22;14269;47.358;0.724;2022-12-07T10:47:37;14.0;45.0
26641;DHT22;14269;47.358;0.724;2022-12-07T10:50:29;16.0;40.0
26641;DHT22;14269;47.358;0.724;2022-12-07T10:53:22;15.0;39.0
26641;DHT22;14269;47.358;0.724;2022-12-07T10:56:25;14.0;44.0
26641;DHT22;14269;47.358;0.724;2022-12-07T10:59:23;13.0;46.0
26641;DHT22;14269;47.358;0.724;2022-12-07T11:02:10;14.0;45.0
26641;DHT22;14269;47.358;0.724;2022-12-07T11:04:59;15.0;42.0
26641;DHT22;14269;47.358;0.724;2022-12-07T11:07:50;15.0;41.0
26641;DHT22;14269;47.358;0.724;2022-12-07T11:10:29;15.0;42.0
26641;DHT22;14269;47.358;0.724;2022-12-07T11:13:26;15.0;41.0
26641;DHT22;14269;47.358;0.724;2022-12-07T11:16:08;14.0;42.0
26641;DHT22;14269;47.358;0.724;2022-12-07T11:18:59;13.0;45.0
26641;DHT22;14269;47.358;0.724;2022-12-07T11:21:48;12.0;48.0
26641;DHT22;14269;47.358;0.724;2022-12-07T11:24:30;11.0;50.0
26641;DHT22;14269;47.358;0.724;2022-12-07T11:27:13;11.0;50.0
26641;DHT22;14269;47.358;0.724;2022-12-07T11:30:12;11.0;50.0
26641;DHT22;14269;47.358;0.724;2022-12-07T11:33:03;12.0;50.0
26641;DHT22;14269;47.358;0.724;2022-12-07T11:35:48;13.0;46.0
26641;DHT22;14269;47.358;0.724;2022-12-07T11:38:28;14.0;43.0
26641;DHT22;14269;47.358;0.724;2022-12-07T11:41:12;16.0;40.0
26641;DHT22;14269;47.358;0.724;2022-12-07T11:43:55;17.0;38.0
26641;DHT22;14269;47.358;0.724;2022-12-07T11:46:39;18.0;36.0
26641;DHT22;14269;47.358;0.724;2022-12-07T11:49:27;18.0;35.0
26641;DHT22;14269;47.358;0.724;2022-12-07T11:52:20;17.0;36.0
26641;DHT22;14269;47.358;0.724;2022-12-07T11:54:54;16.0;39.0
26641;DHT22;14269;47.358;0.724;2022-12-07T11:57:31;14.0;43.0
26641;DHT22;14269;47.358;0.724;2022-12-07T12:00:15;14.0;42.0
26641;DHT22;14269;47.358;0.724;2022-12-07T12:02:52;15.0;41.0
26641;DHT22;14269;47.358;0.724;2022-12-07T12:05:31;14.0;42.0
26641;DHT22;14269;47.358;0.724;2022-12-07T12:08:11;13.0;44.0
26641;DHT22;14269;47.358;0.724;2022-12-07T12:10:53;13.0;44.0
26641;DHT22;14269;47.358;0.724;2022-12-07T12:13:47;13.0;46.0
26641;DHT22;14269;47.358;0.724;2022-12-07T12:16:44;12.0;46.0
26641;DHT22;14269;47.358;0.724;2022-12-07T12:19:27;12.0;46.0
26641;DHT22;14269;47.358;0.724;2022-12-07T12:22:15;13.0;45.0
26641;DHT22;14269;47.358;0.724;2022-12-07T12:24:55;13.0;45.0
26641;DHT22;14269;47.358;0.724;2022-12-07T12:27:37;13.0;45.0
26641;DHT22;14269;47.358;0.724;2022-12-07T12:30:35;13.0;46.0
26641;DHT22;14269;47.358;0.724;2022-12-07T12:33:14;14.0;43.0
26641;DHT22;14269;47.358;0.724;2022-12-07T12:36:18;14.0;43.0
26641;DHT22;14269;47.358;0.724;2022-12-07T12:39:09;13.0;44.0
26641;DHT22;14269;47.358;0.724;2022-12-07T12:42:17;14.0;43.0
26641;DHT22;14269;47.358;0.724;2022-12-07T12:45:19;14.0;43.0
26641;DHT22;14269;47.358;0.724;2022-12-07T12:47:59;15.0;40.0
26641;DHT22;14269;47.358;0.724;2022-12-07T12:50:40;16.0;37.0
26641;DHT22;14269;47.358;0.724;2022-12-07T12:53:17;16.0;37.0
26641;DHT22;14269;47.358;0.724;2022-12-07T12:56:37;15.0;39.0
26641;DHT22;14269;47.358;0.724;2022-12-07T12:59:24;14.0;41.0
26641;DHT22;14269;47.358;0.724;2022-12-07T13:02:15;14.0;42.0
26641;DHT22;14269;47.358;0.724;2022-12-07T13:04:53;15.0;40.0
26641;DHT22;14269;47.358;0.724;2022-12-07T13:08:13;17.0;37.0
26641;DHT22;14269;47.358;0.724;2022-12-07T13:10:53;19.0;33.0
26641;DHT22;14269;47.358;0.724;2022-12-07T13:13:33;19.0;32.0
26641;DHT22;14269;47.358;0.724;2022-12-07T13:16:40;19.0;31.0
26641;DHT22;14269;47.358;0.724;2022-12-07T13:21:41;19.0;32.0
26641;DHT22;14269;47.358;0.724;2022-12-07T13:24:23;18.0;34.0
26641;DHT22;14269;47.358;0.724;2022-12-07T13:27:07;16.0;38.0
26641;DHT22;14269;47.358;0.724;2022-12-07T13:29:46;17.0;37.0
26641;DHT22;14269;47.358;0.724;2022-12-07T13:32:29;17.0;35.0
26641;DHT22;14269;47.358;0.724;2022-12-07T13:35:41;17.0;35.0
26641;DHT22;14269;47.358;0.724;2022-12-07T13:38:25;17.0;36.0
26641;DHT22;14269;47.358;0.724;2022-12-07T13:41:12;17.0;36.0
26641;DHT22;14269;47.358;0.724;2022-12-07T13:43:48;16.0;36.0
26641;DHT22;14269;47.358;0.724;2022-12-07T13:46:34;15.0;40.0
26641;DHT22;14269;47.358;0.724;2022-12-07T13:49:17;16.0;39.0
26641;DHT22;14269;47.358;0.724;2022-12-07T13:51:50;16.0;39.0
26641;DHT22;14269;47.358;0.724;2022-12-07T13:54:22;16.0;37.0
26641;DHT22;14269;47.358;0.724;2022-12-07T13:56:53;16.0;37.0
26641;DHT22;14269;47.358;0.724;2022-12-07T13:59:26;16.0;37.0
26641;DHT22;14269;47.358;0.724;2022-12-07T14:02:18;16.0;37.0
26641;DHT22;14269;47.358;0.724;2022-12-07T14:05:09;17.0;36.0
26641;DHT22;14269;47.358;0.724;2022-12-07T14:07:52;17.0;36.0
26641;DHT22;14269;47.358;0.724;2022-12-07T14:10:34;16.0;37.0
26641;DHT22;14269;47.358;0.724;2022-12-07T14:13:29;15.0;39.0
26641;DHT22;14269;47.358;0.724;2022-12-07T14:16:26;14.0;41.0
26641;DHT22;14269;47.358;0.724;2022-12-07T14:19:40;15.0;39.0
26641;DHT22;14269;47.358;0.724;2022-12-07T14:22:23;16.0;38.0
26641;DHT22;14269;47.358;0.724;2022-12-07T14:25:17;16.0;38.0
26641;DHT22;14269;47.358;0.724;2022-12-07T14:27:56;17.0;36.0
26641;DHT22;14269;47.358;0.724;2022-12-07T14:30:35;16.0;38.0
26641;DHT22;14269;47.358;0.724;2022-12-07T14:33:08;15.0;39.0
26641;DHT22;14269;47.358;0.724;2022-12-07T14:35:49;15.0;39.0
26641;DHT22;14269;47.358;0.724;2022-12-07T14:38:20;12.0;45.0
26641;DHT22;14269;47.358;0.724;2022-12-07T14:40:53;11.0;46.0
26641;DHT22;14269;47.358;0.724;2022-12-07T14:43:34;11.0;49.0
26641;DHT22;14269;47.358;0.724;2022-12-07T14:46:06;11.0;49.0
26641;DHT22;14269;47.358;0.724;2022-12-07T14:48:37;10.0;51.0
26641;DHT22;14269;47.358;0.724;2022-12-07T14:51:10;10.0;52.0
26641;DHT22;14269;47.358;0.724;2022-12-07T14:53:52;9.0;54.0
26641;DHT22;14269;47.358;0.724;2022-12-07T14:56:32;9.0;55.0
26641;DHT22;14269;47.358;0.724;2022-12-07T14:59:04;9.0;56.0
26641;DHT22;14269;47.358;0.724;2022-12-07T15:01:35;9.0;55.0
26641;DHT22;14269;47.358;0.724;2022-12-07T15:04:07;9.0;55.0
26641;DHT22;14269;47.358;0.724;2022-12-07T15:06:39;9.0;56.0
26641;DHT22;14269;47.358;0.724;2022-12-07T15:09:11;9.0;56.0
26641;DHT22;14269;47.358;0.724;2022-12-07T15:11:42;9.0;56.0
26641;DHT22;14269;47.358;0.724;2022-12-07T15:14:14;9.0;56.0
26641;DHT22;14269;47.358;0.724;2022-12-07T15:16:46;8.0;57.0
26641;DHT22;14269;47.358;0.724;2022-12-07T15:19:19;8.0;57.0
26641;DHT22;14269;47.358;0.724;2022-12-07T15:21:59;8.0;57.0
26641;DHT22;14269;47.358;0.724;2022-12-07T15:24:30;8.0;59.0
26641;DHT22;14269;47.358;0.724;2022-12-07T15:27:02;8.0;59.0
26641;DHT22;14269;47.358;0.724;2022-12-07T15:29:34;8.0;60.0
26641;DHT22;14269;47.358;0.724;2022-12-07T15:32:05;8.0;62.0
26641;DHT22;14269;47.358;0.724;2022-12-07T15:34:37;7.0;62.0
26641;DHT22;14269;47.358;0.724;2022-12-07T15:37:10;7.0;62.0
26641;DHT22;14269;47.358;0.724;2022-12-07T15:39:50;7.0;63.0
26641;DHT22;14269;47.358;0.724;2022-12-07T15:42:22;7.0;62.0
26641;DHT22;14269;47.358;0.724;2022-12-07T15:45:09;7.0;63.0
26641;DHT22;14269;47.358;0.724;2022-12-07T15:47:45;7.0;64.0
26641;DHT22;14269;47.358;0.724;2022-12-07T15:50:17;7.0;65.0
26641;DHT22;14269;47.358;0.724;2022-12-07T15:52:49;7.0;65.0
26641;DHT22;14269;47.358;0.724;2022-12-07T15:55:20;7.0;65.0
26641;DHT22;14269;47.358;0.724;2022-12-07T15:57:52;7.0;65.0
26641;DHT22;14269;47.358;0.724;2022-12-07T16:00:24;7.0;65.0
26641;DHT22;14269;47.358;0.724;2022-12-07T16:02:55;6.0;65.0
26641;DHT22;14269;47.358;0.724;2022-12-07T16:05:27;6.0;66.0
26641;DHT22;14269;47.358;0.724;2022-12-07T16:07:59;6.0;66.0
26641;DHT22;14269;47.358;0.724;2022-12-07T16:10:30;6.0;67.0
26641;DHT22;14269;47.358;0.724;2022-12-07T16:13:02;6.0;66.0
26641;DHT22;14269;47.358;0.724;2022-12-07T16:15:38;6.0;66.0
26641;DHT22;14269;47.358;0.724;2022-12-07T16:18:15;6.0;66.0
26641;DHT22;14269;47.358;0.724;2022-12-07T16:20:47;6.0;66.0
26641;DHT22;14269;47.358;0.724;2022-12-07T16:23:19;6.0;67.0
26641;DHT22;14269;47.358;0.724;2022-12-07T16:25:50;6.0;67.0
26641;DHT22;14269;47.358;0.724;2022-12-07T16:28:22;6.0;68.0
26641;DHT22;14269;47.358;0.724;2022-12-07T16:31:01;6.0;68.0
26641;DHT22;14269;47.358;0.724;2022-12-07T16:33:38;5.0;68.0
26641;DHT22;14269;47.358;0.724;2022-12-07T16:36:18;6.0;69.0
26641;DHT22;14269;47.358;0.724;2022-12-07T16:38:49;6.0;68.0
26641;DHT22;14269;47.358;0.724;2022-12-07T16:41:20;6.0;69.0
26641;DHT22;14269;47.358;0.724;2022-12-07T16:43:52;6.0;68.0
26641;DHT22;14269;47.358;0.724;2022-12-07T16:46:24;5.0;68.0
26641;DHT22;14269;47.358;0.724;2022-12-07T16:48:55;5.0;69.0
26641;DHT22;14269;47.358;0.724;2022-12-07T16:51:27;5.0;69.0
26641;DHT22;14269;47.358;0.724;2022-12-07T16:53:59;5.0;69.0
26641;DHT22;14269;47.358;0.724;2022-12-07T16:56:30;5.0;70.0
26641;DHT22;14269;47.358;0.724;2022-12-07T16:59:02;5.0;69.0
26641;DHT22;14269;47.358;0.724;2022-12-07T17:01:34;5.0;69.0
26641;DHT22;14269;47.358;0.724;2022-12-07T17:04:15;5.0;69.0
26641;DHT22;14269;47.358;0.724;2022-12-07T17:06:47;5.0;70.0
26641;DHT22;14269;47.358;0.724;2022-12-07T17:09:19;5.0;69.0
26641;DHT22;14269;47.358;0.724;2022-12-07T17:11:51;5.0;69.0
26641;DHT22;14269;47.358;0.724;2022-12-07T17:15:36;5.0;69.0
26641;DHT22;14269;47.358;0.724;2022-12-07T17:18:14;5.0;69.0
26641;DHT22;14269;47.358;0.724;2022-12-07T17:20:46;5.0;70.0
26641;DHT22;14269;47.358;0.724;2022-12-07T17:23:18;5.0;70.0
26641;DHT22;14269;47.358;0.724;2022-12-07T17:25:50;5.0;69.0